Time;durP1;ratioP1;P1;durP2;ratioP2;P2;SDS_P1;SDS_P2;PMS_P1;PMS_P2;Temp;Humidity;BMP_temperature;BMP_pressure;BME280_temperature;BME280_humidity;BME280_pressure;Samples;Min_cycle;Max_cycle;Signal;HPM_P1;HPM_P2
2022/07/20 00:00:15;;;;;;;22.80;20.63;;;;;;;16.36;nan;99555.84;2065397;28;20931;-73
2022/07/20 00:01:18;;;;;;;22.73;20.80;;;;;;;16.35;nan;99559.66;2073913;28;20211;-73
2022/07/20 00:02:21;;;;;;;23.13;20.73;;;;;;;16.36;nan;99557.75;2065196;28;20920;-73
2022/07/20 00:03:23;;;;;;;23.30;21.13;;;;;;;16.36;nan;99555.06;2065793;28;20436;-73
2022/07/20 00:04:23;;;;;;;24.30;21.77;;;;;;;16.35;nan;99554.28;2074040;28;20442;-73
2022/07/20 00:05:25;;;;;;;23.60;21.33;;;;;;;16.37;nan;99559.34;2073964;28;20427;-73
2022/07/20 00:06:27;;;;;;;22.63;20.63;;;;;;;16.36;nan;99563.94;2073472;28;20725;-73
2022/07/20 00:07:33;;;;;;;23.13;21.03;;;;;;;16.38;nan;99556.31;2073933;28;20431;-73
2022/07/20 00:11:23;;;;;;;22.77;20.53;;;;;;;16.37;nan;99560.13;2073979;28;20432;-73
2022/07/20 00:12:24;;;;;;;23.63;21.13;;;;;;;16.36;nan;99555.84;2065321;28;20903;-73
2022/07/20 00:13:28;;;;;;;24.13;21.70;;;;;;;16.33;nan;99545.75;2065533;28;20808;-73
2022/07/20 00:14:29;;;;;;;22.57;20.40;;;;;;;16.30;nan;99551.75;2065013;28;20820;-73
2022/07/20 00:15:33;;;;;;;23.27;20.93;;;;;;;16.28;nan;99555.88;2056974;28;20499;-73
2022/07/20 00:16:36;;;;;;;24.67;20.87;;;;;;;16.26;nan;99548.13;2057484;28;20201;-73
2022/07/20 00:17:38;;;;;;;22.77;20.77;;;;;;;16.23;nan;99547.97;2057652;28;20444;-73
2022/07/20 00:18:38;;;;;;;22.57;20.50;;;;;;;16.22;nan;99549.88;2066933;28;20950;-73
2022/07/20 00:19:41;;;;;;;23.00;21.03;;;;;;;16.18;nan;99543.56;2067542;28;20784;-73
2022/07/20 00:20:43;;;;;;;25.60;21.67;;;;;;;16.17;nan;99546.56;2066801;28;20197;-73
2022/07/20 00:21:46;;;;;;;23.50;21.03;;;;;;;16.17;nan;99551.97;2066645;28;20465;-73
2022/07/20 00:22:48;;;;;;;24.40;21.83;;;;;;;16.15;nan;99544.19;2067513;28;20671;-73
2022/07/20 00:23:52;;;;;;;23.30;20.90;;;;;;;16.13;nan;99553.69;2067464;28;20424;-73
2022/07/20 00:24:52;;;;;;;22.83;20.73;;;;;;;16.10;nan;99549.75;2067462;28;20463;-73
2022/07/20 00:25:54;;;;;;;24.80;20.93;;;;;;;16.08;nan;99552.78;2067755;28;20428;-73
2022/07/20 00:26:54;;;;;;;23.07;20.80;;;;;;;16.07;nan;99547.69;2066800;28;20223;-73
2022/07/20 00:27:59;;;;;;;23.13;21.00;;;;;;;16.04;nan;99551.03;2058737;28;20448;-73
2022/07/20 00:29:01;;;;;;;23.77;21.27;;;;;;;16.01;nan;99546.28;2066889;28;20200;-73
2022/07/20 00:30:03;;;;;;;23.20;21.00;;;;;;;15.99;nan;99548.50;2066724;28;20591;-73
2022/07/20 00:31:05;;;;;;;23.80;21.67;;;;;;;15.99;nan;99549.31;2066966;28;20432;-73
2022/07/20 00:32:06;;;;;;;23.53;21.37;;;;;;;15.97;nan;99548.03;2066753;28;20848;-73
2022/07/20 00:33:07;;;;;;;23.13;20.83;;;;;;;15.95;nan;99542.19;2066762;28;20938;-73
2022/07/20 00:34:09;;;;;;;23.07;20.87;;;;;;;15.94;nan;99548.66;2058689;28;20445;-73
2022/07/20 00:35:11;;;;;;;23.20;21.17;;;;;;;15.92;nan;99553.59;2066802;28;20209;-73
2022/07/20 00:36:14;;;;;;;23.27;20.93;;;;;;;15.91;nan;99541.25;2067041;28;20456;-73
2022/07/20 00:37:16;;;;;;;23.07;21.07;;;;;;;15.90;nan;99547.72;2066696;28;20459;-73
2022/07/20 00:38:18;;;;;;;23.17;20.77;;;;;;;15.88;nan;99548.03;2066662;28;20444;-73
2022/07/20 00:39:20;;;;;;;22.50;20.60;;;;;;;15.88;nan;99547.25;2058715;28;20463;-73
2022/07/20 00:40:25;;;;;;;23.57;21.27;;;;;;;15.89;nan;99543.44;2066855;28;20424;-73
2022/07/20 00:41:27;;;;;;;21.67;19.77;;;;;;;15.84;nan;99547.09;2067247;28;20475;-73
2022/07/20 00:42:29;;;;;;;23.53;21.13;;;;;;;15.83;nan;99546.31;2067391;28;20847;-73
2022/07/20 00:44:11;;;;;;;26.87;20.97;;;;;;;15.80;nan;99546.94;2066753;28;20491;-73
2022/07/20 00:45:12;;;;;;;23.73;21.33;;;;;;;15.76;nan;99546.00;2051123;28;20506;-73
2022/07/20 00:46:14;;;;;;;23.20;21.23;;;;;;;15.77;nan;99547.59;2066440;28;20436;-73
2022/07/20 00:47:16;;;;;;;22.87;20.83;;;;;;;15.77;nan;99555.66;2066936;28;20726;-73
2022/07/20 00:48:17;;;;;;;24.30;21.73;;;;;;;15.72;nan;99536.97;2067396;28;20439;-73
2022/07/20 00:49:19;;;;;;;22.97;20.97;;;;;;;15.76;nan;99546.00;2066522;28;20432;-73
2022/07/20 00:50:22;;;;;;;22.67;20.50;;;;;;;15.69;nan;99545.69;2066657;28;20535;-73
2022/07/20 00:51:25;;;;;;;23.53;21.30;;;;;;;15.71;nan;99554.22;2066325;28;20926;-73
2022/07/20 00:52:27;;;;;;;25.93;21.80;;;;;;;15.71;nan;99553.44;2066241;28;21022;-73
2022/07/20 00:53:27;;;;;;;23.77;21.37;;;;;;;15.67;nan;99550.59;2066687;28;20439;-73
2022/07/20 00:54:33;;;;;;;23.60;21.17;;;;;;;15.66;nan;99551.72;2067351;28;20487;-73
2022/07/20 00:55:36;;;;;;;22.57;20.50;;;;;;;15.64;nan;99550.47;2067583;28;20181;-74
2022/07/20 00:56:39;;;;;;;22.63;20.57;;;;;;;15.60;nan;99558.31;2066466;28;20487;-74
2022/07/20 00:57:41;;;;;;;22.63;20.40;;;;;;;15.60;nan;99554.84;2066622;28;20447;-74
2022/07/20 00:58:46;;;;;;;23.03;21.03;;;;;;;15.57;nan;99548.19;2066572;28;20463;-74
2022/07/20 00:59:47;;;;;;;22.60;20.73;;;;;;;15.57;nan;99555.47;2058589;28;21049;-74
2022/07/20 01:00:49;;;;;;;22.87;20.43;;;;;;;15.55;nan;99553.13;2058450;28;20805;-74
2022/07/20 01:01:51;;;;;;;22.57;20.57;;;;;;;15.52;nan;99551.03;2066511;28;20250;-74
2022/07/20 01:02:54;;;;;;;22.77;20.87;;;;;;;15.52;nan;99556.41;2066474;28;20448;-74
2022/07/20 01:03:55;;;;;;;23.30;20.77;;;;;;;15.47;nan;99552.00;2066626;28;20463;-74
2022/07/20 01:04:57;;;;;;;22.73;20.73;;;;;;;15.47;nan;99553.91;2067163;28;20619;-74
2022/07/20 01:05:58;;;;;;;24.00;21.53;;;;;;;15.45;nan;99553.41;2066729;28;20200;-74
2022/07/20 01:06:59;;;;;;;24.33;21.17;;;;;;;15.44;nan;99559.91;2067295;28;20491;-74
2022/07/20 01:08:01;;;;;;;24.80;22.50;;;;;;;15.44;nan;99559.91;2066752;28;20232;-74
2022/07/20 01:09:04;;;;;;;24.93;22.37;;;;;;;15.43;nan;99556.41;2066763;28;20774;-74
2022/07/20 01:10:07;;;;;;;25.47;22.97;;;;;;;15.45;nan;99556.09;2067362;28;20518;-75
2022/07/20 01:11:10;;;;;;;26.90;21.97;;;;;;;15.49;nan;99554.38;2067104;28;20439;-75
2022/07/20 01:12:12;;;;;;;23.93;21.77;;;;;;;15.49;nan;99559.75;2067128;28;20439;-75
2022/07/20 01:13:13;;;;;;;27.37;21.50;;;;;;;15.48;nan;99555.47;2067134;28;20442;-75
2022/07/20 01:14:14;;;;;;;23.90;21.53;;;;;;;15.48;nan;99553.59;2067047;28;20283;-75
2022/07/20 01:15:20;;;;;;;24.10;21.83;;;;;;;15.45;nan;99556.09;2066240;28;20475;-75
2022/07/20 01:16:23;;;;;;;23.90;21.57;;;;;;;15.44;nan;99549.13;2066797;28;20184;-75
2022/07/20 01:17:25;;;;;;;24.10;21.90;;;;;;;15.42;nan;99552.16;2067101;28;20434;-75
2022/07/20 01:18:27;;;;;;;25.87;21.43;;;;;;;15.41;nan;99552.47;2067057;28;20465;-75
2022/07/20 01:19:29;;;;;;;23.57;21.27;;;;;;;15.37;nan;99554.97;2065926;28;21028;-75
2022/07/20 01:20:30;;;;;;;24.57;21.97;;;;;;;15.35;nan;99549.13;2066417;28;20535;-75
2022/07/20 01:21:39;;;;;;;22.80;20.87;;;;;;;15.33;nan;99553.25;2057894;28;20523;-75
2022/07/20 01:22:40;;;;;;;23.87;21.40;;;;;;;15.31;nan;99550.88;2066598;28;20429;-75
2022/07/20 01:23:42;;;;;;;23.17;21.03;;;;;;;15.29;nan;99547.72;2067100;28;20428;-75
2022/07/20 01:24:43;;;;;;;25.17;22.53;;;;;;;15.27;nan;99550.69;2066385;28;20595;-75
2022/07/20 01:25:46;;;;;;;24.90;22.43;;;;;;;15.30;nan;99548.50;2066458;28;20474;-75
2022/07/20 01:26:49;;;;;;;26.27;23.57;;;;;;;15.30;nan;99548.50;2067018;28;20624;-75
2022/07/20 01:27:49;;;;;;;25.57;22.93;;;;;;;15.34;nan;99552.13;2066986;28;20460;-75
2022/07/20 01:28:53;;;;;;;25.83;23.07;;;;;;;15.38;nan;99550.41;2067187;28;20435;-75
2022/07/20 01:29:55;;;;;;;25.30;22.93;;;;;;;15.40;nan;99554.38;2066549;28;20275;-75
2022/07/20 01:30:56;;;;;;;25.43;22.67;;;;;;;15.43;nan;99552.94;2067092;28;20428;-75
2022/07/20 01:32:00;;;;;;;26.50;23.33;;;;;;;15.48;nan;99560.84;2067035;28;20216;-75
2022/07/20 01:33:01;;;;;;;25.23;22.77;;;;;;;15.53;nan;99558.00;2066186;28;20510;-75
2022/07/20 01:34:03;;;;;;;26.37;23.20;;;;;;;15.54;nan;99554.19;2066662;28;20877;-75
2022/07/20 01:35:05;;;;;;;25.60;23.30;;;;;;;15.57;nan;99558.97;2066921;28;20476;-75
2022/07/20 01:36:07;;;;;;;25.43;22.80;;;;;;;15.57;nan;99558.97;2066451;28;20785;-75
2022/07/20 01:37:11;;;;;;;24.43;22.00;;;;;;;15.58;nan;99557.84;2066181;28;20495;-75
2022/07/20 01:38:13;;;;;;;25.23;22.77;;;;;;;15.58;nan;99559.75;2058588;28;20536;-76
2022/07/20 01:39:14;;;;;;;24.67;22.37;;;;;;;15.54;nan;99556.88;2066550;28;20460;-75
2022/07/20 01:40:16;;;;;;;22.53;20.63;;;;;;;15.53;nan;99558.78;2066913;28;20432;-75
2022/07/20 01:41:17;;;;;;;23.57;21.30;;;;;;;15.51;nan;99554.84;2066787;28;20359;-75
2022/07/20 01:42:18;;;;;;;23.63;21.43;;;;;;;15.49;nan;99559.75;2066948;28;20425;-75
2022/07/20 01:43:21;;;;;;;25.07;22.73;;;;;;;15.46;nan;99554.97;2066847;28;20668;-76
2022/07/20 01:44:23;;;;;;;25.17;22.87;;;;;;;15.45;nan;99558.78;2066825;28;20479;-75
2022/07/20 01:45:24;;;;;;;24.93;22.50;;;;;;;15.44;nan;99559.91;2067027;28;20905;-75
2022/07/20 01:46:28;;;;;;;23.67;21.40;;;;;;;15.44;nan;99562.59;2066911;28;20428;-75
2022/07/20 01:47:29;;;;;;;23.60;21.43;;;;;;;15.40;nan;99554.38;2066169;28;20208;-75
2022/07/20 01:48:31;;;;;;;23.43;21.10;;;;;;;15.38;nan;99555.78;2066309;28;20439;-75
2022/07/20 01:49:32;;;;;;;23.57;21.50;;;;;;;15.37;nan;99559.56;2067029;28;20184;-75
2022/07/20 01:50:35;;;;;;;23.30;21.30;;;;;;;15.34;nan;99558.31;2066136;28;20444;-75
2022/07/20 01:51:39;;;;;;;23.37;21.10;;;;;;;15.32;nan;99557.84;2065920;28;20270;-75
2022/07/20 01:52:42;;;;;;;23.87;21.50;;;;;;;15.27;nan;99558.75;2066128;28;20440;-75
2022/07/20 01:53:44;;;;;;;24.77;22.03;;;;;;;15.25;nan;99558.28;2058228;28;20552;-76
2022/07/20 01:54:46;;;;;;;25.63;22.97;;;;;;;15.22;nan;99552.78;2058294;28;20460;-75
2022/07/20 01:55:47;;;;;;;24.77;22.47;;;;;;;15.21;nan;99560.03;2058131;28;20445;-75
2022/07/20 01:56:48;;;;;;;24.53;22.23;;;;;;;15.21;nan;99557.34;2058073;28;20544;-75
2022/07/20 01:57:51;;;;;;;24.03;21.90;;;;;;;15.22;nan;99558.16;2066202;28;20724;-75
2022/07/20 01:58:53;;;;;;;24.27;22.07;;;;;;;15.20;nan;99558.47;2066762;28;20479;-75
2022/07/20 01:59:55;;;;;;;24.73;22.30;;;;;;;15.21;nan;99560.03;2066025;28;20448;-75
2022/07/20 02:00:58;;;;;;;27.10;22.17;;;;;;;15.23;nan;99565.09;2066261;28;20420;-75
2022/07/20 02:01:58;;;;;;;24.83;22.43;;;;;;;15.21;nan;99562.72;2066729;28;20464;-75
2022/07/20 02:03:00;;;;;;;24.23;21.93;;;;;;;15.23;nan;99559.72;2065762;28;20535;-75
2022/07/20 02:04:00;;;;;;;24.10;21.87;;;;;;;15.19;nan;99567.59;2057998;28;20202;-75
2022/07/20 02:05:02;;;;;;;23.20;21.10;;;;;;;15.19;nan;99564.13;2058107;28;20445;-75
2022/07/20 02:06:04;;;;;;;24.93;22.47;;;;;;;15.19;nan;99559.53;2065547;28;20645;-75
2022/07/20 02:07:05;;;;;;;24.53;22.20;;;;;;;15.15;nan;99558.59;2066041;28;20827;-76
2022/07/20 02:08:07;;;;;;;23.93;21.87;;;;;;;15.14;nan;99565.09;2066103;28;20440;-75
2022/07/20 02:09:09;;;;;;;23.57;21.50;;;;;;;15.09;nan;99567.91;2066000;28;20543;-75
2022/07/20 02:10:12;;;;;;;24.03;21.87;;;;;;;15.09;nan;99567.13;2066243;28;20444;-75
2022/07/20 02:11:14;;;;;;;24.07;21.97;;;;;;;15.06;nan;99565.84;2065923;28;20445;-75
2022/07/20 02:12:15;;;;;;;23.73;21.70;;;;;;;15.02;nan;99569.47;2066248;28;20432;-76
2022/07/20 02:13:16;;;;;;;24.97;22.57;;;;;;;15.01;nan;99566.00;2065960;28;20452;-75
2022/07/20 02:14:18;;;;;;;25.23;22.63;;;;;;;14.98;nan;99564.72;2066192;28;20216;-75
2022/07/20 02:16:36;;;;;;;25.10;22.50;;;;;;;15.00;nan;99564.41;2064998;28;20444;-75
2022/07/20 02:17:37;;;;;;;24.80;22.57;;;;;;;15.02;nan;99564.09;2058007;28;20934;-75
2022/07/20 02:18:40;;;;;;;24.80;22.40;;;;;;;15.05;nan;99568.88;2066072;28;20424;-75
2022/07/20 02:19:41;;;;;;;23.07;20.87;;;;;;;15.01;nan;99557.94;2066588;28;20212;-75
2022/07/20 02:20:43;;;;;;;24.07;21.80;;;;;;;15.01;nan;99559.81;2066820;28;20435;-75
2022/07/20 02:21:45;;;;;;;23.00;20.97;;;;;;;14.96;nan;99558.09;2066165;28;20232;-75
2022/07/20 02:22:47;;;;;;;23.30;21.23;;;;;;;14.95;nan;99559.19;2066583;28;20474;-75
2022/07/20 02:23:51;;;;;;;24.03;21.73;;;;;;;14.94;nan;99552.22;2066778;28;20918;-75
2022/07/20 02:24:52;;;;;;;24.73;22.00;;;;;;;14.92;nan;99559.81;2066519;28;20518;-75
2022/07/20 02:25:53;;;;;;;23.10;21.00;;;;;;;14.89;nan;99563.13;2066624;28;20519;-76
2022/07/20 02:27:01;;;;;;;24.10;21.63;;;;;;;14.87;nan;99560.75;2065853;28;20498;-76
2022/07/20 02:28:01;;;;;;;24.10;21.90;;;;;;;14.84;nan;99563.25;2066271;28;20212;-76
2022/07/20 02:29:04;;;;;;;24.37;22.00;;;;;;;14.81;nan;99558.50;2066546;28;20907;-76
2022/07/20 02:30:06;;;;;;;26.03;22.20;;;;;;;14.81;nan;99562.00;2065422;28;20604;-76
2022/07/20 02:31:08;;;;;;;25.07;22.50;;;;;;;14.84;nan;99574.00;2065982;28;20459;-75
2022/07/20 02:32:10;;;;;;;24.70;22.10;;;;;;;14.86;nan;99566.44;2066479;28;20420;-76
2022/07/20 02:33:12;;;;;;;24.13;21.77;;;;;;;14.89;nan;99560.44;2065803;28;20440;-76
2022/07/20 02:34:13;;;;;;;24.90;22.33;;;;;;;14.92;nan;99567.88;2057801;28;20488;-76
2022/07/20 02:35:16;;;;;;;24.83;22.07;;;;;;;14.92;nan;99567.88;2065896;28;20432;-76
2022/07/20 02:36:19;;;;;;;25.03;22.40;;;;;;;14.94;nan;99566.47;2066023;28;20447;-76
2022/07/20 02:37:21;;;;;;;24.47;21.97;;;;;;;14.93;nan;99567.56;2065878;28;20519;-76
2022/07/20 02:38:22;;;;;;;25.60;22.73;;;;;;;14.95;nan;99564.56;2065981;28;20464;-76
2022/07/20 02:39:25;;;;;;;24.23;21.70;;;;;;;14.96;nan;99566.94;2066684;28;20439;-76
2022/07/20 02:40:27;;;;;;;24.73;22.33;;;;;;;14.95;nan;99568.06;2066434;28;20618;-76
2022/07/20 02:41:28;;;;;;;23.97;21.40;;;;;;;14.94;nan;99565.66;2064806;28;20448;-76
2022/07/20 02:42:29;;;;;;;23.80;21.50;;;;;;;14.94;nan;99563.78;2065766;28;20468;-76
2022/07/20 02:43:31;;;;;;;23.73;21.33;;;;;;;14.90;nan;99559.34;2066457;28;20428;-76
2022/07/20 02:44:32;;;;;;;23.83;21.40;;;;;;;14.89;nan;99558.53;2066508;28;20213;-76
2022/07/20 02:45:34;;;;;;;23.13;21.03;;;;;;;14.88;nan;99556.16;2066467;28;20428;-76
2022/07/20 02:46:37;;;;;;;24.23;22.03;;;;;;;14.89;nan;99560.44;2066468;28;20228;-76
2022/07/20 02:47:43;;;;;;;23.40;21.30;;;;;;;14.89;nan;99565.81;2066366;28;20519;-76
2022/07/20 02:48:47;;;;;;;24.20;21.77;;;;;;;14.89;nan;99555.06;2066329;28;20448;-76
2022/07/20 02:49:48;;;;;;;23.63;21.33;;;;;;;14.88;nan;99554.28;2066374;28;20192;-76
2022/07/20 02:50:50;;;;;;;23.07;21.03;;;;;;;14.85;nan;99548.72;2065687;28;20974;-76
2022/07/20 02:51:50;;;;;;;27.30;22.93;;;;;;;14.83;nan;99557.09;2065374;28;20268;-76
2022/07/20 02:52:52;;;;;;;24.07;21.67;;;;;;;14.80;nan;99552.34;2066316;28;20447;-76
2022/07/20 02:53:53;;;;;;;23.90;21.50;;;;;;;14.80;nan;99551.56;2066346;28;20192;-76
2022/07/20 02:54:56;;;;;;;23.33;21.10;;;;;;;14.78;nan;99565.31;2066631;28;20500;-76
2022/07/20 02:55:58;;;;;;;23.30;21.10;;;;;;;14.74;nan;99552.81;2065628;28;20211;-76
2022/07/20 02:57:00;;;;;;;23.53;21.17;;;;;;;14.72;nan;99557.69;2065649;28;20448;-76
2022/07/20 02:58:01;;;;;;;23.50;21.50;;;;;;;14.71;nan;99559.59;2065687;28;20590;-76
2022/07/20 02:59:03;;;;;;;24.33;21.73;;;;;;;14.67;nan;99554.03;2065496;28;20424;-75
2022/07/20 03:00:05;;;;;;;23.07;20.63;;;;;;;14.66;nan;99552.44;2065726;28;20236;-75
2022/07/20 03:01:07;;;;;;;23.67;21.23;;;;;;;14.67;nan;99558.63;2066386;28;20448;-75
2022/07/20 03:02:08;;;;;;;23.03;20.67;;;;;;;14.61;nan;99559.88;2066367;28;20464;-75
2022/07/20 03:03:11;;;;;;;23.45;21.25;;;;;;;14.61;nan;99555.28;2064687;28;20870;-75
2022/07/20 03:04:12;;;;;;;24.20;22.00;;;;;;;14.59;nan;99552.09;2065917;28;20196;-75
2022/07/20 03:05:14;;;;;;;24.40;21.87;;;;;;;14.58;nan;99563.94;2066239;28;20791;-75
2022/07/20 03:06:16;;;;;;;26.35;22.83;;;;;;;14.58;nan;99555.91;2065036;28;20498;-75
2022/07/20 03:07:18;;;;;;;24.08;21.85;;;;;;;14.56;nan;99552.75;2065739;28;20624;-75
2022/07/20 03:08:19;;;;;;;23.58;21.50;;;;;;;14.53;nan;99556.06;2066329;28;20749;-75
2022/07/20 03:09:23;;;;;;;24.95;22.35;;;;;;;14.53;nan;99553.38;2066396;28;20194;-75
2022/07/20 03:10:25;;;;;;;25.45;22.77;;;;;;;14.53;nan;99556.06;2066188;28;20548;-75
2022/07/20 03:11:27;;;;;;;25.23;22.17;;;;;;;14.54;nan;99559.53;2065512;28;20193;-75
2022/07/20 03:12:28;;;;;;;25.40;22.75;;;;;;;14.53;nan;99558.75;2065633;28;20193;-75
2022/07/20 03:13:29;;;;;;;24.33;21.97;;;;;;;14.57;nan;99561.59;2066159;28;20190;-75
2022/07/20 03:14:30;;;;;;;27.88;22.88;;;;;;;14.54;nan;99554.94;2066264;28;20194;-75
2022/07/20 03:15:35;;;;;;;24.57;22.47;;;;;;;14.56;nan;99555.41;2064917;28;20267;-75
2022/07/20 03:16:37;;;;;;;25.25;22.67;;;;;;;14.57;nan;99556.22;2065908;28;20570;-75
2022/07/20 03:17:44;;;;;;;27.40;23.33;;;;;;;14.61;nan;99560.66;2066158;28;20193;-75
2022/07/20 03:18:44;;;;;;;25.75;23.13;;;;;;;14.63;nan;99557.66;2066086;28;20494;-75
2022/07/20 03:19:46;;;;;;;26.63;23.77;;;;;;;14.66;nan;99563.19;2066178;28;20244;-75
2022/07/20 03:20:47;;;;;;;31.33;24.50;;;;;;;14.69;nan;99567.97;2065540;28;20738;-75
2022/07/20 03:21:49;;;;;;;25.80;23.17;;;;;;;14.70;nan;99569.56;2065063;28;20831;-75
2022/07/20 03:22:52;;;;;;;25.08;22.63;;;;;;;14.74;nan;99569.72;2065383;28;20595;-75
2022/07/20 03:23:55;;;;;;;23.85;21.55;;;;;;;14.75;nan;99565.13;2057378;28;20204;-75
2022/07/20 03:24:56;;;;;;;24.10;22.00;;;;;;;14.74;nan;99563.53;2065747;28;20220;-75
2022/07/20 03:25:59;;;;;;;24.98;22.52;;;;;;;14.74;nan;99568.91;2066119;28;20835;-75
2022/07/20 03:27:00;;;;;;;25.70;23.13;;;;;;;14.73;nan;99562.75;2066274;28;20197;-75
2022/07/20 03:28:01;;;;;;;25.13;22.57;;;;;;;14.73;nan;99561.97;2066224;28;20194;-75
2022/07/20 03:29:02;;;;;;;24.95;22.50;;;;;;;14.74;nan;99563.53;2066212;28;20284;-75
2022/07/20 03:30:05;;;;;;;25.23;22.67;;;;;;;14.76;nan;99569.38;2066166;28;20197;-75
2022/07/20 03:31:08;;;;;;;24.53;22.23;;;;;;;14.76;nan;99575.56;2065406;28;20205;-75
2022/07/20 03:32:09;;;;;;;25.07;22.57;;;;;;;14.77;nan;99570.97;2065576;28;20439;-75
2022/07/20 03:33:11;;;;;;;24.38;22.05;;;;;;;14.79;nan;99579.53;2066033;28;20460;-75
2022/07/20 03:34:11;;;;;;;24.10;21.80;;;;;;;14.78;nan;99565.31;2065353;28;20673;-75
2022/07/20 03:35:13;;;;;;;23.30;21.20;;;;;;;14.78;nan;99575.25;2065475;28;20433;-75
2022/07/20 03:36:15;;;;;;;24.53;22.03;;;;;;;14.77;nan;99579.84;2064818;28;20229;-75
2022/07/20 03:37:16;;;;;;;27.63;22.80;;;;;;;14.77;nan;99579.84;2065462;28;20810;-75
2022/07/20 03:38:18;;;;;;;24.80;22.40;;;;;;;14.77;nan;99579.84;2066112;28;20494;-75
2022/07/20 03:39:19;;;;;;;24.50;22.30;;;;;;;14.81;nan;99577.31;2065451;28;20209;-75
2022/07/20 03:40:21;;;;;;;24.60;22.37;;;;;;;14.84;nan;99574.00;2065646;28;20432;-75
2022/07/20 03:41:23;;;;;;;24.80;22.30;;;;;;;14.88;nan;99583.81;2065926;28;20582;-75
2022/07/20 03:42:25;;;;;;;25.60;22.65;;;;;;;14.90;nan;99583.50;2066026;28;20518;-75
2022/07/20 03:43:27;;;;;;;26.20;22.13;;;;;;;14.94;nan;99587.16;2066000;28;20243;-75
2022/07/20 03:44:29;;;;;;;25.00;22.23;;;;;;;14.95;nan;99584.16;2065298;28;20527;-75
2022/07/20 03:45:31;;;;;;;24.57;22.23;;;;;;;14.95;nan;99581.50;2065507;28;20257;-75
2022/07/20 03:46:35;;;;;;;24.63;22.20;;;;;;;14.98;nan;99575.47;2065235;28;20506;-75
2022/07/20 03:47:36;;;;;;;23.90;21.70;;;;;;;15.01;nan;99578.63;2065333;28;20439;-75
2022/07/20 03:48:37;;;;;;;24.63;22.43;;;;;;;15.03;nan;99582.63;2065991;28;20180;-75
2022/07/20 03:49:40;;;;;;;24.70;22.27;;;;;;;15.04;nan;99578.03;2066141;28;20255;-75
2022/07/20 03:50:42;;;;;;;26.05;22.58;;;;;;;15.05;nan;99583.09;2065936;28;20412;-75
2022/07/20 03:51:44;;;;;;;24.23;21.65;;;;;;;15.05;nan;99580.41;2065781;28;20242;-75
2022/07/20 03:52:47;;;;;;;23.85;21.63;;;;;;;15.06;nan;99571.22;2065849;28;20216;-75
2022/07/20 03:53:48;;;;;;;23.17;21.07;;;;;;;15.09;nan;99589.41;2065909;28;20599;-75
2022/07/20 03:54:49;;;;;;;32.43;21.90;;;;;;;15.10;nan;99582.94;2065988;28;20439;-75
2022/07/20 03:55:51;;;;;;;24.23;21.90;;;;;;;15.10;nan;99582.13;2066077;28;20200;-75
2022/07/20 03:56:53;;;;;;;23.65;21.50;;;;;;;15.10;nan;99582.94;2066006;28;20438;-75
2022/07/20 03:57:59;;;;;;;24.57;22.07;;;;;;;15.11;nan;99583.72;2065869;28;20196;-75
2022/07/20 03:58:59;;;;;;;24.67;22.57;;;;;;;15.11;nan;99583.72;2065923;28;20460;-75
2022/07/20 04:00:01;;;;;;;24.13;21.73;;;;;;;15.11;nan;99592.56;2066124;28;20906;-75
2022/07/20 04:01:02;;;;;;;25.13;22.70;;;;;;;15.10;nan;99590.19;2065279;28;20208;-75
2022/07/20 04:02:04;;;;;;;25.77;22.23;;;;;;;15.15;nan;99590.06;2065333;28;20463;-75
2022/07/20 04:03:04;;;;;;;25.87;23.03;;;;;;;15.15;nan;99590.06;2066041;28;20300;-75
2022/07/20 04:04:08;;;;;;;25.43;22.83;;;;;;;15.15;nan;99593.53;2065153;28;20447;-76
2022/07/20 04:05:10;;;;;;;24.60;22.20;;;;;;;15.17;nan;99593.22;2065277;28;20235;-76
2022/07/20 04:06:12;;;;;;;24.60;22.27;;;;;;;15.19;nan;99593.69;2064696;28;20440;-76
2022/07/20 04:07:13;;;;;;;24.43;22.20;;;;;;;15.21;nan;99597.69;2065393;28;20479;-76
2022/07/20 04:08:15;;;;;;;23.67;21.50;;;;;;;15.22;nan;99598.47;2065867;28;21010;-76
2022/07/20 04:09:43;;;;;;;23.77;21.43;;;;;;;15.24;nan;99598.94;2065871;28;21083;-76
2022/07/20 04:10:37;;;;;;;24.20;22.10;;;;;;;15.24;nan;99594.34;2065699;28;20938;-76
2022/07/20 04:11:38;;;;;;;24.23;21.53;;;;;;;15.26;nan;99600.19;2065995;28;20472;-75
2022/07/20 04:12:42;;;;;;;24.10;21.83;;;;;;;15.28;nan;99594.50;2066064;28;20420;-76
2022/07/20 04:13:43;;;;;;;24.13;22.07;;;;;;;15.31;nan;99590.41;2066057;28;20709;-75
2022/07/20 04:14:46;;;;;;;24.40;22.07;;;;;;;15.33;nan;99598.97;2065156;28;20868;-76
2022/07/20 04:15:48;;;;;;;24.00;21.60;;;;;;;15.36;nan;99592.94;2065039;28;20235;-76
2022/07/20 04:16:48;;;;;;;24.80;22.20;;;;;;;15.38;nan;99599.59;2057394;28;20694;-76
2022/07/20 04:17:51;;;;;;;24.17;21.70;;;;;;;15.40;nan;99593.91;2065376;28;20826;-76
2022/07/20 04:18:53;;;;;;;23.53;21.43;;;;;;;15.43;nan;99598.66;2065104;28;20213;-76
2022/07/20 04:19:57;;;;;;;23.93;21.37;;;;;;;15.46;nan;99592.63;2065276;28;20456;-76
2022/07/20 04:20:58;;;;;;;23.80;21.23;;;;;;;15.48;nan;99595.81;2072655;28;20271;-76
2022/07/20 04:22:00;;;;;;;24.13;21.63;;;;;;;15.50;nan;99590.91;2064819;28;21080;-76
2022/07/20 04:23:01;;;;;;;24.60;22.03;;;;;;;15.51;nan;99589.81;2056784;28;20537;-74
2022/07/20 04:24:02;;;;;;;24.40;22.03;;;;;;;15.55;nan;99590.78;2065236;28;21005;-74
2022/07/20 04:25:06;;;;;;;23.87;21.80;;;;;;;15.59;nan;99589.03;2065787;28;20283;-74
2022/07/20 04:26:07;;;;;;;25.17;21.63;;;;;;;15.60;nan;99587.91;2065101;28;20801;-76
2022/07/20 04:27:11;;;;;;;24.03;21.47;;;;;;;15.64;nan;99590.81;2065118;28;20521;-74
2022/07/20 04:28:14;;;;;;;24.33;21.87;;;;;;;15.67;nan;99596.34;2065271;28;20185;-75
2022/07/20 04:29:15;;;;;;;23.90;21.70;;;;;;;15.67;nan;99590.94;2065910;28;20439;-74
2022/07/20 04:30:17;;;;;;;24.97;22.20;;;;;;;15.70;nan;99597.59;2066007;28;20511;-74
2022/07/20 04:31:17;;;;;;;24.87;22.53;;;;;;;15.70;nan;99589.53;2065220;28;20570;-74
2022/07/20 04:32:19;;;;;;;24.83;22.27;;;;;;;15.74;nan;99601.25;2065270;28;20420;-75
2022/07/20 04:33:22;;;;;;;26.10;22.60;;;;;;;15.77;nan;99603.28;2066015;28;20208;-75
2022/07/20 04:34:27;;;;;;;24.60;22.23;;;;;;;15.79;nan;99599.16;2064635;28;20530;-76
2022/07/20 04:35:32;;;;;;;24.27;21.87;;;;;;;15.79;nan;99593.78;2065331;28;20467;-75
2022/07/20 04:36:33;;;;;;;25.57;22.53;;;;;;;15.85;nan;99596.31;2065482;28;21024;-75
2022/07/20 04:37:34;;;;;;;24.23;21.70;;;;;;;15.94;nan;99605.19;2065094;28;20859;-75
2022/07/20 04:38:35;;;;;;;25.33;21.93;;;;;;;15.93;nan;99599.00;2064986;28;20209;-74
2022/07/20 04:39:38;;;;;;;23.90;21.43;;;;;;;15.94;nan;99599.81;2057107;28;20497;-75
2022/07/20 04:40:39;;;;;;;25.73;21.77;;;;;;;15.95;nan;99593.31;2065226;28;20193;-75
2022/07/20 04:41:41;;;;;;;24.57;22.20;;;;;;;15.97;nan;99599.16;2065048;28;20447;-75
2022/07/20 04:42:42;;;;;;;23.40;20.97;;;;;;;16.01;nan;99605.50;2064986;28;20991;-74
2022/07/20 04:43:45;;;;;;;23.97;21.63;;;;;;;16.01;nan;99595.53;2065141;28;20518;-74
2022/07/20 04:44:46;;;;;;;28.30;22.50;;;;;;;16.05;nan;99601.06;2064936;28;20551;-75
2022/07/20 04:45:47;;;;;;;24.77;21.37;;;;;;;16.08;nan;99597.75;2065063;28;20452;-74
2022/07/20 04:46:48;;;;;;;24.53;21.87;;;;;;;16.11;nan;99599.78;2065084;28;20283;-75
2022/07/20 04:47:50;;;;;;;24.20;21.73;;;;;;;16.14;nan;99593.75;2065709;28;20428;-75
2022/07/20 04:48:51;;;;;;;24.30;21.87;;;;;;;16.15;nan;99595.34;2065779;28;20193;-75
2022/07/20 04:49:53;;;;;;;24.63;22.07;;;;;;;16.21;nan;99598.66;2065019;28;20436;-75
2022/07/20 04:50:54;;;;;;;23.47;21.23;;;;;;;16.24;nan;99601.50;2064645;28;20219;-76
2022/07/20 04:51:55;;;;;;;23.13;20.93;;;;;;;16.26;nan;99596.59;2065241;28;20440;-75
2022/07/20 04:52:56;;;;;;;23.17;21.07;;;;;;;16.28;nan;99598.97;2065016;28;20296;-76
2022/07/20 04:54:00;;;;;;;23.33;21.33;;;;;;;16.32;nan;99595.28;2065144;28;20438;-75
2022/07/20 04:55:03;;;;;;;24.27;21.87;;;;;;;16.33;nan;99602.28;2066217;28;20192;-75
2022/07/20 04:56:05;;;;;;;24.17;21.73;;;;;;;16.37;nan;99594.34;2065757;28;20436;-75
2022/07/20 04:57:06;;;;;;;23.43;21.23;;;;;;;16.40;nan;99596.38;2065828;28;20440;-76